OVOQ07 ZPPP-ZGHA
Flight info
| Callsign | OVOQ07 |
|---|---|
| Flight time | N/A |
| Altitude | 39100 |
| Route | NODIB4Q NODIB W137 LPS A581 NOMUK W194 LLC W138 RUKLI RUK2W |
| Aircraft | E190/M-SDE1E2E3FGHIJ3J4J7P2RWXY/LB1D1G1 |
Departure
| Time | 2026-05-04 13:32 |
|---|---|
| Airport | Kunming Changshui International Airport (ZPPP) |
Arrival
| Time | N/A |
|---|---|
| Airport | Changsha Huanghua International Airport (ZGHA) |
| Time | Latitude | Longitude | Altitude | Speed | Heading |
|---|---|---|---|---|---|
| 2026-05-04 13:09 | 25.12608 | 102.94252 | 6911 ft | 0 kts | 308° |
| 2026-05-04 13:25 | 25.12612 | 102.94246 | 6911 ft | 1 kts | 308° |
| 2026-05-04 13:25 | 25.12619 | 102.94236 | 6911 ft | 1 kts | 308° |
| 2026-05-04 13:25 | 25.12629 | 102.94223 | 6911 ft | 2 kts | 308° |
| 2026-05-04 13:25 | 25.12643 | 102.94204 | 6911 ft | 4 kts | 312° |
| 2026-05-04 13:26 | 25.12681 | 102.94206 | 6911 ft | 8 kts | 33° |
| 2026-05-04 13:26 | 25.12739 | 102.94252 | 6911 ft | 11 kts | 36° |
| 2026-05-04 13:26 | 25.12802 | 102.94305 | 6911 ft | 11 kts | 38° |
| 2026-05-04 13:26 | 25.12871 | 102.94355 | 6911 ft | 12 kts | 10° |
| 2026-05-04 13:27 | 25.12937 | 102.94304 | 6911 ft | 12 kts | 308° |
| 2026-05-04 13:27 | 25.12971 | 102.94255 | 6911 ft | 0 kts | 307° |
| 2026-05-04 13:28 | 25.12975 | 102.94249 | 6911 ft | 1 kts | 306° |
| 2026-05-04 13:29 | 25.12986 | 102.94233 | 6911 ft | 3 kts | 306° |
| 2026-05-04 13:29 | 25.13000 | 102.94212 | 6911 ft | 3 kts | 306° |
| 2026-05-04 13:29 | 25.13016 | 102.94188 | 6911 ft | 4 kts | 306° |
| 2026-05-04 13:29 | 25.13030 | 102.94158 | 6911 ft | 4 kts | 274° |
| 2026-05-04 13:30 | 25.13013 | 102.94127 | 6911 ft | 4 kts | 221° |
| 2026-05-04 13:30 | 25.13012 | 102.94126 | 6911 ft | 0 kts | 219° |
| 2026-05-04 13:31 | 25.12937 | 102.94061 | 6911 ft | 47 kts | 217° |
| 2026-05-04 13:31 | 25.12458 | 102.93646 | 6911 ft | 124 kts | 218° |
| 2026-05-04 13:32 | 25.11621 | 102.92938 | 7055 ft | 169 kts | 217° |
| 2026-05-04 13:32 | 25.10637 | 102.92072 | 7606 ft | 190 kts | 225° |
| 2026-05-04 13:32 | 25.09802 | 102.90971 | 8505 ft | 188 kts | 229° |
| 2026-05-04 13:32 | 25.08594 | 102.90271 | 8800 ft | 217 kts | 185° |
| 2026-05-04 13:33 | 25.07038 | 102.90731 | 9086 ft | 250 kts | 144° |
| 2026-05-04 13:33 | 25.06021 | 102.92315 | 9787 ft | 264 kts | 106° |
| 2026-05-04 13:33 | 25.05957 | 102.94358 | 10376 ft | 281 kts | 85° |
| 2026-05-04 13:33 | 25.06077 | 102.96603 | 10749 ft | 305 kts | 89° |
| 2026-05-04 13:34 | 25.06071 | 102.98996 | 11261 ft | 322 kts | 92° |
| 2026-05-04 13:34 | 25.05998 | 103.01507 | 11885 ft | 334 kts | 92° |
| 2026-05-04 13:34 | 25.05894 | 103.04097 | 12500 ft | 346 kts | 92° |
| 2026-05-04 13:34 | 25.05774 | 103.06770 | 13147 ft | 355 kts | 92° |
| 2026-05-04 13:35 | 25.05645 | 103.09518 | 13849 ft | 362 kts | 92° |
| 2026-05-04 13:35 | 25.05377 | 103.15104 | 15282 ft | 371 kts | 92° |
| 2026-05-04 13:35 | 25.05239 | 103.17951 | 15993 ft | 375 kts | 92° |
| 2026-05-04 13:36 | 25.05255 | 103.20816 | 16648 ft | 377 kts | 77° |
| 2026-05-04 13:36 | 25.06230 | 103.23450 | 17303 ft | 373 kts | 51° |
| 2026-05-04 13:36 | 25.08022 | 103.25463 | 17972 ft | 367 kts | 33° |
| 2026-05-04 13:36 | 25.10065 | 103.27157 | 18654 ft | 369 kts | 31° |
| 2026-05-04 13:37 | 25.12168 | 103.28817 | 19310 ft | 372 kts | 30° |
| 2026-05-04 13:37 | 25.14293 | 103.30467 | 19937 ft | 376 kts | 30° |
| 2026-05-04 13:37 | 25.16444 | 103.32127 | 20560 ft | 380 kts | 30° |
| 2026-05-04 13:37 | 25.18619 | 103.33803 | 21171 ft | 383 kts | 30° |
| 2026-05-04 13:38 | 25.20809 | 103.35489 | 21758 ft | 387 kts | 30° |
| 2026-05-04 13:38 | 25.23022 | 103.37195 | 22338 ft | 390 kts | 30° |
| 2026-05-04 13:38 | 25.25254 | 103.38915 | 22890 ft | 394 kts | 30° |
| 2026-05-04 13:38 | 25.27504 | 103.40650 | 23422 ft | 397 kts | 29° |
| 2026-05-04 13:39 | 25.29789 | 103.42412 | 23971 ft | 400 kts | 29° |
| 2026-05-04 13:39 | 25.32087 | 103.44185 | 24504 ft | 404 kts | 29° |
| 2026-05-04 13:39 | 25.34396 | 103.45968 | 25021 ft | 407 kts | 28° |
| 2026-05-04 13:39 | 25.36727 | 103.47768 | 25502 ft | 411 kts | 28° |
| 2026-05-04 13:40 | 25.39079 | 103.49586 | 25978 ft | 415 kts | 28° |
| 2026-05-04 13:40 | 25.41452 | 103.51421 | 26454 ft | 419 kts | 28° |
| 2026-05-04 13:40 | 25.43845 | 103.53272 | 26937 ft | 422 kts | 28° |
| 2026-05-04 13:40 | 25.46257 | 103.55138 | 27394 ft | 425 kts | 28° |
| 2026-05-04 13:41 | 25.48642 | 103.56985 | 27875 ft | 427 kts | 28° |
| 2026-05-04 13:41 | 25.51124 | 103.58933 | 28321 ft | 433 kts | 31° |
| 2026-05-04 13:41 | 25.53370 | 103.61210 | 28721 ft | 445 kts | 40° |
| 2026-05-04 13:42 | 25.56971 | 103.66937 | 29502 ft | 461 kts | 52° |
| 2026-05-04 13:42 | 25.58681 | 103.69939 | 29860 ft | 464 kts | 51° |
| 2026-05-04 13:42 | 25.60422 | 103.72950 | 30216 ft | 467 kts | 51° |
| 2026-05-04 13:42 | 25.62176 | 103.75974 | 30562 ft | 469 kts | 51° |
| 2026-05-04 13:43 | 25.63945 | 103.79024 | 30916 ft | 472 kts | 51° |
| 2026-05-04 13:43 | 25.65729 | 103.82098 | 31210 ft | 476 kts | 51° |
| 2026-05-04 13:43 | 25.67518 | 103.85185 | 31530 ft | 479 kts | 51° |
| 2026-05-04 13:43 | 25.69320 | 103.88295 | 31817 ft | 482 kts | 51° |
| 2026-05-04 13:44 | 25.71130 | 103.91422 | 32172 ft | 483 kts | 51° |
| 2026-05-04 13:44 | 25.72940 | 103.94550 | 32585 ft | 483 kts | 51° |
| 2026-05-04 13:44 | 25.74745 | 103.97675 | 33088 ft | 482 kts | 51° |
| 2026-05-04 13:44 | 25.76545 | 104.00788 | 33632 ft | 480 kts | 51° |
| 2026-05-04 13:45 | 25.78327 | 104.03875 | 34172 ft | 477 kts | 51° |
| 2026-05-04 13:45 | 25.80128 | 104.06989 | 34701 ft | 475 kts | 51° |
| 2026-05-04 13:45 | 25.81933 | 104.10052 | 35238 ft | 472 kts | 50° |
| 2026-05-04 13:45 | 25.83723 | 104.13096 | 35762 ft | 470 kts | 50° |
| 2026-05-04 13:46 | 25.85502 | 104.16123 | 36253 ft | 468 kts | 50° |
| 2026-05-04 13:46 | 25.87275 | 104.19142 | 36670 ft | 467 kts | 50° |
| 2026-05-04 13:46 | 25.89046 | 104.22161 | 37050 ft | 467 kts | 50° |
| 2026-05-04 13:46 | 25.90813 | 104.25175 | 37451 ft | 467 kts | 50° |
| 2026-05-04 13:47 | 25.92581 | 104.28190 | 37838 ft | 466 kts | 50° |
| 2026-05-04 13:47 | 25.94353 | 104.31217 | 38212 ft | 466 kts | 50° |
| 2026-05-04 13:47 | 25.96117 | 104.34231 | 38597 ft | 466 kts | 50° |
| 2026-05-04 13:47 | 25.97883 | 104.37251 | 38958 ft | 467 kts | 50° |
| 2026-05-04 13:48 | 25.99645 | 104.40266 | 39338 ft | 464 kts | 50° |
| 2026-05-04 13:48 | 26.01398 | 104.43251 | 39368 ft | 463 kts | 48° |
| 2026-05-04 13:48 | 26.05773 | 104.48374 | 39406 ft | 458 kts | 31° |
| 2026-05-04 13:49 | 26.10774 | 104.52980 | 39385 ft | 472 kts | 32° |
| 2026-05-04 13:49 | 26.15878 | 104.57717 | 39386 ft | 484 kts | 32° |
| 2026-05-04 13:50 | 26.21089 | 104.62562 | 39380 ft | 493 kts | 32° |
| 2026-05-04 13:50 | 26.26373 | 104.67482 | 39356 ft | 494 kts | 33° |
| 2026-05-04 13:51 | 26.31655 | 104.72403 | 39363 ft | 495 kts | 33° |
| 2026-05-04 13:51 | 26.36916 | 104.77312 | 39361 ft | 494 kts | 33° |
| 2026-05-04 13:52 | 26.44810 | 104.84688 | 39361 ft | 495 kts | 33° |
| 2026-05-04 13:53 | 26.50084 | 104.89624 | 39354 ft | 494 kts | 32° |
| 2026-05-04 13:53 | 26.55358 | 104.94565 | 39357 ft | 495 kts | 32° |
| 2026-05-04 13:54 | 26.63072 | 105.02240 | 39364 ft | 505 kts | 43° |
| 2026-05-04 13:54 | 26.66939 | 105.08926 | 39374 ft | 523 kts | 60° |
| 2026-05-04 13:55 | 26.68324 | 105.12696 | 39373 ft | 525 kts | 62° |
| 2026-05-04 13:55 | 26.72740 | 105.23872 | 39365 ft | 524 kts | 60° |
| 2026-05-04 13:56 | 26.75714 | 105.31288 | 39361 ft | 524 kts | 60° |
| 2026-05-04 13:57 | 26.80180 | 105.42449 | 39338 ft | 525 kts | 60° |
| 2026-05-04 13:58 | 26.86127 | 105.57357 | 39333 ft | 525 kts | 60° |
| 2026-05-04 13:58 | 26.90566 | 105.68537 | 39309 ft | 526 kts | 60° |
| 2026-05-04 13:59 | 26.93529 | 105.76016 | 39303 ft | 527 kts | 60° |
| 2026-05-04 14:00 | 26.97974 | 105.87263 | 39281 ft | 527 kts | 60° |
| 2026-05-04 14:00 | 27.02404 | 105.98506 | 39284 ft | 527 kts | 60° |
| 2026-05-04 14:01 | 27.05486 | 106.05947 | 39294 ft | 523 kts | 55° |
| 2026-05-04 14:02 | 27.10495 | 106.16827 | 39295 ft | 525 kts | 56° |
| 2026-05-04 14:02 | 27.13811 | 106.24095 | 39302 ft | 523 kts | 56° |
| 2026-05-04 14:03 | 27.17120 | 106.31362 | 39298 ft | 527 kts | 56° |
| 2026-05-04 14:03 | 27.20448 | 106.38683 | 39290 ft | 524 kts | 56° |
| 2026-05-04 14:04 | 27.25414 | 106.49615 | 39275 ft | 525 kts | 56° |
| 2026-05-04 14:04 | 27.28729 | 106.56928 | 39267 ft | 526 kts | 56° |
| 2026-05-04 14:05 | 27.33698 | 106.67914 | 39245 ft | 526 kts | 57° |
| 2026-05-04 14:06 | 27.37012 | 106.75258 | 39247 ft | 527 kts | 57° |
| 2026-05-04 14:06 | 27.40301 | 106.82599 | 39252 ft | 527 kts | 57° |
| 2026-05-04 14:07 | 27.43597 | 106.89968 | 39250 ft | 529 kts | 57° |
| 2026-05-04 14:07 | 27.46899 | 106.97363 | 39251 ft | 528 kts | 57° |
| 2026-05-04 14:08 | 27.50218 | 107.04713 | 39256 ft | 527 kts | 56° |
| 2026-05-04 14:08 | 27.53533 | 107.12045 | 39253 ft | 527 kts | 56° |
| 2026-05-04 14:09 | 27.58508 | 107.23074 | 39251 ft | 528 kts | 56° |
| 2026-05-04 14:10 | 27.63482 | 107.34113 | 39246 ft | 530 kts | 56° |
| 2026-05-04 14:10 | 27.66795 | 107.41485 | 39243 ft | 527 kts | 56° |
| 2026-05-04 14:11 | 27.70105 | 107.48863 | 39237 ft | 529 kts | 56° |
| 2026-05-04 14:11 | 27.75067 | 107.59947 | 39236 ft | 528 kts | 56° |
| 2026-05-04 14:12 | 27.78365 | 107.67329 | 39230 ft | 530 kts | 57° |
| 2026-05-04 14:13 | 27.83338 | 107.78467 | 39229 ft | 529 kts | 56° |
| 2026-05-04 14:13 | 27.86717 | 107.85861 | 39215 ft | 529 kts | 56° |
| 2026-05-04 14:14 | 27.90087 | 107.93260 | 39205 ft | 531 kts | 56° |
| 2026-05-04 14:14 | 27.95139 | 108.04374 | 39201 ft | 529 kts | 56° |
| 2026-05-04 14:15 | 28.01862 | 108.19211 | 39195 ft | 530 kts | 56° |
| 2026-05-04 14:16 | 28.06879 | 108.30316 | 39192 ft | 531 kts | 56° |
| 2026-05-04 14:17 | 28.11900 | 108.41465 | 39191 ft | 530 kts | 56° |
| 2026-05-04 14:18 | 28.16910 | 108.52617 | 39198 ft | 529 kts | 56° |
| 2026-05-04 14:19 | 28.23579 | 108.67510 | 39210 ft | 532 kts | 56° |
| 2026-05-04 14:19 | 28.26918 | 108.74988 | 39211 ft | 531 kts | 56° |
| 2026-05-04 14:20 | 28.30249 | 108.82451 | 39205 ft | 532 kts | 56° |
| 2026-05-04 14:20 | 28.33592 | 108.89895 | 39197 ft | 531 kts | 56° |
| 2026-05-04 14:21 | 28.38594 | 109.01066 | 39179 ft | 530 kts | 56° |
| 2026-05-04 14:21 | 28.41936 | 109.08544 | 39178 ft | 531 kts | 56° |
| 2026-05-04 14:22 | 28.45266 | 109.16021 | 39179 ft | 533 kts | 57° |
| 2026-05-04 14:22 | 28.48581 | 109.23543 | 39170 ft | 534 kts | 57° |
| 2026-05-04 14:23 | 28.53538 | 109.34813 | 39170 ft | 532 kts | 56° |
| 2026-05-04 14:24 | 28.56844 | 109.42348 | 39173 ft | 532 kts | 56° |
| 2026-05-04 14:24 | 28.59770 | 109.50135 | 39179 ft | 540 kts | 62° |
| 2026-05-04 14:25 | 28.62486 | 109.58070 | 39164 ft | 538 kts | 62° |
| 2026-05-04 14:25 | 28.66610 | 109.69948 | 39139 ft | 537 kts | 61° |
| 2026-05-04 14:26 | 28.69433 | 109.77797 | 39144 ft | 538 kts | 62° |
| 2026-05-04 14:26 | 28.72258 | 109.85678 | 39153 ft | 540 kts | 62° |
| 2026-05-04 14:27 | 28.75088 | 109.93595 | 39174 ft | 539 kts | 62° |
| 2026-05-04 14:27 | 28.77908 | 110.01501 | 39189 ft | 540 kts | 62° |
| 2026-05-04 14:28 | 28.80723 | 110.09414 | 39183 ft | 539 kts | 62° |
| 2026-05-04 14:28 | 28.83535 | 110.17336 | 39170 ft | 540 kts | 62° |
| 2026-05-04 14:29 | 28.89174 | 110.33270 | 39172 ft | 542 kts | 62° |
| 2026-05-04 14:30 | 28.91985 | 110.41244 | 39179 ft | 541 kts | 61° |
| 2026-05-04 14:31 | 28.96185 | 110.53185 | 39181 ft | 540 kts | 62° |
| 2026-05-04 14:32 | 29.01290 | 110.69453 | 39164 ft | 554 kts | 76° |
| 2026-05-04 14:32 | 29.01818 | 110.78279 | 39148 ft | 562 kts | 90° |
| 2026-05-04 14:33 | 29.00458 | 110.87065 | 39163 ft | 565 kts | 109° |
| 2026-05-04 14:33 | 28.98337 | 110.95693 | 39165 ft | 565 kts | 103° |
| 2026-05-04 14:34 | 28.96572 | 111.04406 | 39166 ft | 565 kts | 103° |
| 2026-05-04 14:34 | 28.94815 | 111.13136 | 39156 ft | 566 kts | 102° |
| 2026-05-04 14:35 | 28.93055 | 111.21851 | 39143 ft | 564 kts | 103° |
| 2026-05-04 14:35 | 28.91164 | 111.31176 | 39126 ft | 564 kts | 103° |
| 2026-05-04 14:36 | 28.89391 | 111.39890 | 39128 ft | 566 kts | 103° |
| 2026-05-04 14:36 | 28.88504 | 111.44232 | 39114 ft | 554 kts | 102° |
| 2026-05-04 14:36 | 28.87651 | 111.48414 | 39106 ft | 532 kts | 102° |
| 2026-05-04 14:36 | 28.86796 | 111.52440 | 39112 ft | 518 kts | 107° |